createdAt,value
2024-01-09T00:00:18.987Z,73.66
2024-01-09T00:02:48.711Z,74.66
2024-01-09T00:05:16.826Z,74.61
2024-01-09T00:07:43.385Z,74.07
2024-01-09T00:10:10.107Z,74.40
2024-01-09T00:12:36.695Z,74.25
2024-01-09T00:15:05.159Z,74.75
2024-01-09T00:17:31.705Z,74.97
2024-01-09T00:19:58.367Z,74.20
2024-01-09T00:22:24.928Z,74.34
2024-01-09T00:24:51.582Z,75.08
2024-01-09T00:27:18.231Z,75.08
2024-01-09T00:29:44.871Z,74.93
2024-01-09T00:32:11.422Z,75.05
2024-01-09T00:34:38.067Z,74.92
2024-01-09T00:37:04.508Z,74.76
2024-01-09T00:39:30.980Z,74.23
2024-01-09T00:41:57.482Z,74.67
2024-01-09T00:44:23.981Z,74.70
2024-01-09T00:46:50.468Z,74.21
2024-01-09T00:49:17.027Z,74.23
2024-01-09T00:51:43.569Z,74.43
2024-01-09T00:54:10.017Z,74.52
2024-01-09T00:56:36.528Z,74.15
2024-01-09T00:59:03.008Z,74.04
2024-01-09T01:01:29.687Z,74.22
2024-01-09T01:03:57.502Z,74.26
2024-01-09T01:06:24.277Z,74.63
2024-01-09T01:08:51.051Z,74.46
2024-01-09T01:11:17.717Z,74.85
2024-01-09T01:13:44.539Z,74.13
2024-01-09T01:16:10.985Z,73.95
2024-01-09T01:18:37.566Z,74.27
2024-01-09T01:21:04.113Z,74.41
2024-01-09T01:23:31.793Z,74.19
2024-01-09T01:25:58.353Z,73.85
2024-01-09T01:28:24.931Z,74.25
2024-01-09T01:30:51.717Z,74.42
2024-01-09T01:33:18.294Z,74.81
2024-01-09T01:35:44.881Z,74.88
2024-01-09T01:38:11.357Z,74.79
2024-01-09T01:40:37.955Z,74.42
2024-01-09T01:43:06.308Z,75.04
2024-01-09T01:45:33.083Z,74.72
2024-01-09T01:48:01.310Z,74.86
2024-01-09T01:50:29.760Z,74.47
2024-01-09T01:52:56.598Z,74.86
2024-01-09T01:55:26.634Z,74.36
2024-01-09T01:57:55.340Z,74.89
2024-01-09T02:00:23.010Z,74.97
2024-01-09T02:02:53.285Z,74.72
2024-01-09T02:05:21.935Z,74.91
2024-01-09T02:07:52.642Z,74.93
2024-01-09T02:10:20.732Z,74.67
2024-01-09T02:12:47.758Z,74.95
2024-01-09T02:15:14.666Z,74.90
2024-01-09T02:17:41.459Z,75.34
2024-01-09T02:20:09.564Z,75.28
2024-01-09T02:22:36.208Z,75.53
2024-01-09T02:25:04.613Z,74.94
2024-01-09T02:27:49.758Z,75.70
2024-01-09T02:30:17.832Z,75.25
2024-01-09T02:32:45.063Z,75.51
2024-01-09T02:35:11.976Z,74.94
2024-01-09T02:37:41.029Z,75.24
2024-01-09T02:40:09.174Z,75.78
2024-01-09T02:42:35.821Z,75.21
2024-01-09T02:45:02.323Z,75.38
2024-01-09T02:47:28.867Z,75.48
2024-01-09T02:49:55.361Z,75.48
2024-01-09T02:52:21.973Z,75.61
2024-01-09T02:54:48.533Z,76.00
2024-01-09T02:57:16.859Z,75.78
2024-01-09T02:59:43.368Z,76.25
2024-01-09T03:02:09.943Z,76.54
2024-01-09T03:04:36.844Z,76.40
2024-01-09T03:07:03.938Z,76.60
2024-01-09T03:09:30.577Z,76.56
2024-01-09T03:11:57.105Z,76.46
2024-01-09T03:14:23.853Z,75.90
2024-01-09T03:16:50.837Z,76.73
2024-01-09T03:19:17.673Z,76.60
2024-01-09T03:21:44.274Z,76.13
2024-01-09T03:24:10.688Z,76.52
2024-01-09T03:26:37.285Z,76.66
2024-01-09T03:29:05.357Z,77.17
2024-01-09T03:31:32.970Z,76.56
2024-01-09T03:33:59.577Z,76.97
2024-01-09T03:36:26.363Z,76.60
2024-01-09T03:38:53.816Z,77.22
2024-01-09T03:41:20.508Z,76.86
2024-01-09T03:43:47.114Z,77.17
2024-01-09T03:46:13.615Z,76.93
2024-01-09T03:48:40.234Z,76.71
2024-01-09T03:51:07.011Z,76.59
2024-01-09T03:53:33.544Z,76.67
2024-01-09T03:56:00.166Z,77.31
2024-01-09T03:58:26.977Z,76.76
2024-01-09T04:00:53.740Z,76.50
2024-01-09T04:03:20.336Z,77.16
2024-01-09T04:05:47.094Z,76.80
2024-01-09T04:08:15.445Z,76.46
2024-01-09T04:10:42.420Z,76.76
2024-01-09T04:13:08.967Z,77.15
2024-01-09T04:15:35.920Z,76.13
2024-01-09T04:18:02.955Z,76.69
2024-01-09T04:20:29.552Z,76.77
2024-01-09T04:22:56.042Z,76.53
2024-01-09T04:25:22.624Z,76.85
2024-01-09T04:27:49.110Z,76.22
2024-01-09T04:30:15.708Z,76.40
2024-01-09T04:32:42.346Z,76.55
2024-01-09T04:35:09.058Z,76.34
2024-01-09T04:37:35.599Z,76.19
2024-01-09T04:40:02.182Z,75.75
2024-01-09T04:42:29.025Z,76.08
2024-01-09T04:44:55.597Z,76.28
2024-01-09T04:47:22.350Z,76.41
2024-01-09T04:49:49.798Z,76.24
2024-01-09T04:52:16.384Z,76.45
2024-01-09T04:54:42.958Z,76.02
2024-01-09T04:57:09.776Z,75.82
2024-01-09T04:59:36.439Z,75.94
2024-01-09T05:02:03.356Z,76.00
2024-01-09T05:04:30.803Z,75.79
2024-01-09T05:06:57.621Z,76.04
2024-01-09T05:09:24.758Z,75.78
2024-01-09T05:11:51.475Z,75.87
2024-01-09T05:14:18.306Z,76.05
2024-01-09T05:16:44.991Z,75.88
2024-01-09T05:19:11.627Z,76.22
2024-01-09T05:21:38.186Z,76.17
2024-01-09T05:24:04.950Z,76.13
2024-01-09T05:26:31.421Z,75.97
2024-01-09T05:28:57.971Z,75.83
2024-01-09T05:31:26.542Z,75.39
2024-01-09T05:33:53.446Z,75.78
2024-01-09T05:36:23.726Z,75.63
2024-01-09T05:38:53.184Z,75.75
2024-01-09T05:41:23.593Z,75.70
2024-01-09T05:43:50.499Z,75.57
2024-01-09T05:46:17.107Z,75.23
2024-01-09T05:48:44.044Z,75.16
2024-01-09T05:51:11.314Z,75.34
2024-01-09T05:53:38.642Z,75.44
2024-01-09T05:56:07.203Z,74.96
2024-01-09T05:58:34.681Z,75.24
2024-01-09T06:01:01.844Z,75.41
2024-01-09T06:03:28.731Z,75.14
2024-01-09T06:05:55.582Z,74.46
2024-01-09T06:08:22.232Z,74.56
2024-01-09T06:10:51.525Z,74.46
2024-01-09T06:13:18.140Z,74.30
2024-01-09T06:15:44.923Z,74.11
2024-01-09T06:18:11.609Z,74.55
2024-01-09T06:20:38.409Z,74.76
2024-01-09T06:23:05.231Z,74.07
2024-01-09T06:25:32.296Z,74.06
2024-01-09T06:27:58.871Z,73.86
2024-01-09T06:30:25.538Z,74.08
2024-01-09T06:32:52.348Z,74.57
2024-01-09T06:35:19.044Z,74.53
2024-01-09T06:37:45.669Z,74.36
2024-01-09T06:40:12.356Z,74.55
2024-01-09T06:42:40.872Z,73.96
2024-01-09T06:45:08.148Z,74.03
2024-01-09T06:47:36.023Z,74.21
2024-01-09T06:50:06.201Z,74.18
2024-01-09T06:52:34.323Z,74.22
2024-01-09T06:55:00.920Z,74.38
2024-01-09T06:57:27.563Z,73.80
2024-01-09T06:59:54.262Z,73.90
2024-01-09T07:02:22.273Z,73.64
2024-01-09T07:04:49.286Z,73.94
2024-01-09T07:07:16.101Z,73.07
2024-01-09T07:09:42.697Z,73.64
2024-01-09T07:12:17.627Z,73.29
2024-01-09T07:14:44.833Z,73.30
2024-01-09T07:17:11.618Z,73.37
2024-01-09T07:19:41.364Z,72.57
2024-01-09T07:22:08.110Z,73.01
2024-01-09T07:24:34.814Z,72.28
2024-01-09T07:27:01.395Z,72.46
2024-01-09T07:29:28.062Z,72.25
2024-01-09T07:31:54.738Z,72.83
2024-01-09T07:34:21.426Z,71.96
2024-01-09T07:36:48.097Z,72.21
2024-01-09T07:39:14.825Z,72.20
2024-01-09T07:41:41.494Z,72.13
2024-01-09T07:44:08.259Z,71.73
2024-01-09T07:46:34.912Z,71.99
2024-01-09T07:49:01.697Z,71.43
2024-01-09T07:51:28.509Z,72.05
2024-01-09T07:53:55.644Z,71.94
2024-01-09T07:56:23.077Z,71.62
2024-01-09T07:58:49.814Z,72.03
2024-01-09T08:01:16.524Z,71.91
2024-01-09T08:03:43.663Z,71.03
2024-01-09T08:06:18.574Z,71.01
2024-01-09T08:08:48.861Z,71.39
2024-01-09T08:11:35.771Z,71.45
2024-01-09T08:14:02.294Z,71.09
2024-01-09T08:16:29.047Z,70.79
2024-01-09T08:18:55.766Z,71.03
2024-01-09T08:21:22.337Z,70.92
2024-01-09T08:23:48.999Z,71.22
2024-01-09T08:26:15.934Z,70.76
2024-01-09T08:28:42.547Z,70.85
2024-01-09T08:31:09.320Z,70.63
2024-01-09T08:33:49.093Z,70.50
2024-01-09T08:36:16.264Z,70.56
2024-01-09T08:38:42.828Z,70.45
2024-01-09T08:41:11.680Z,70.38
2024-01-09T08:43:38.319Z,70.39
2024-01-09T08:46:05.121Z,69.85
2024-01-09T08:48:31.754Z,70.15
2024-01-09T08:50:59.053Z,69.69
2024-01-09T08:53:29.584Z,69.31
2024-01-09T08:55:56.312Z,68.95
2024-01-09T08:58:22.900Z,68.74
2024-01-09T09:00:50.548Z,68.69
2024-01-09T09:03:17.310Z,68.78
2024-01-09T09:05:44.078Z,68.48
2024-01-09T09:08:10.717Z,68.45
2024-01-09T09:10:37.237Z,67.96
2024-01-09T09:13:04.860Z,67.69
2024-01-09T09:15:31.683Z,67.90
2024-01-09T09:17:58.445Z,67.71
2024-01-09T09:20:25.640Z,67.39
2024-01-09T09:22:52.287Z,67.11
2024-01-09T09:25:19.032Z,66.73
2024-01-09T09:27:46.894Z,67.07
2024-01-09T09:30:14.084Z,66.63
2024-01-09T09:32:41.150Z,66.30
2024-01-09T09:35:08.233Z,65.50
2024-01-09T09:37:35.801Z,65.85
2024-01-09T09:40:02.340Z,65.22
2024-01-09T09:42:32.795Z,65.39
2024-01-09T09:45:04.114Z,65.20
2024-01-09T09:47:32.627Z,65.05
2024-01-09T09:49:59.584Z,64.76
2024-01-09T09:52:29.118Z,63.81
2024-01-09T09:54:58.576Z,63.05
2024-01-09T09:57:25.922Z,62.92
2024-01-09T09:59:52.892Z,62.57
2024-01-09T10:02:27.715Z,62.71
2024-01-09T10:04:57.517Z,62.20
2024-01-09T10:07:24.270Z,62.30
2024-01-09T10:09:53.449Z,62.27
2024-01-09T10:12:23.771Z,61.78
2024-01-09T10:15:10.842Z,61.34
2024-01-09T10:17:41.286Z,61.17
2024-01-09T10:20:10.070Z,61.24
2024-01-09T10:22:39.650Z,61.08
2024-01-09T10:25:07.795Z,60.67
2024-01-09T10:27:35.590Z,60.89
2024-01-09T10:30:02.184Z,61.32
2024-01-09T10:32:28.929Z,60.00
2024-01-09T10:34:55.712Z,60.20
2024-01-09T10:37:22.343Z,59.66
2024-01-09T10:39:51.433Z,59.67
2024-01-09T10:42:19.000Z,59.72
2024-01-09T10:44:48.774Z,59.55
2024-01-09T10:47:16.266Z,59.42
2024-01-09T10:49:44.057Z,59.23
2024-01-09T10:52:17.622Z,58.63
2024-01-09T10:54:46.140Z,58.27
2024-01-09T10:57:16.530Z,57.76
2024-01-09T10:59:45.568Z,58.18
2024-01-09T11:02:26.606Z,57.67
2024-01-09T11:04:53.975Z,57.08
2024-01-09T11:07:21.883Z,57.49
2024-01-09T11:09:49.261Z,56.99
2024-01-09T11:12:23.445Z,56.29
2024-01-09T11:14:54.003Z,56.95
2024-01-09T11:17:23.576Z,56.99
2024-01-09T11:19:50.702Z,56.75
2024-01-09T11:22:19.076Z,56.02
2024-01-09T11:24:54.039Z,55.60
2024-01-09T11:27:20.706Z,56.00
2024-01-09T11:29:54.562Z,55.48
2024-01-09T11:32:27.310Z,55.53
2024-01-09T11:35:16.971Z,55.15
2024-01-09T11:37:48.462Z,55.36
2024-01-09T11:40:17.125Z,54.64
2024-01-09T11:42:48.305Z,53.74
2024-01-09T11:45:21.761Z,53.46
2024-01-09T11:47:48.684Z,53.65
2024-01-09T11:50:15.712Z,53.93
2024-01-09T11:52:43.951Z,53.85
2024-01-09T11:55:11.954Z,53.52
2024-01-09T11:57:41.008Z,54.36
2024-01-09T12:00:09.664Z,53.99
2024-01-09T12:02:40.312Z,53.66
2024-01-09T12:05:08.240Z,53.10
2024-01-09T12:07:38.150Z,52.72
2024-01-09T12:10:16.281Z,52.12
2024-01-09T12:12:48.276Z,52.40
2024-01-09T12:15:20.648Z,52.68
2024-01-09T12:17:57.922Z,52.59
2024-01-09T12:20:25.160Z,52.77
2024-01-09T12:22:52.124Z,52.38
2024-01-09T12:25:19.101Z,52.73
2024-01-09T12:27:46.033Z,52.66
2024-01-09T12:30:14.584Z,52.05
2024-01-09T12:32:41.655Z,52.16
2024-01-09T12:35:08.294Z,51.28
2024-01-09T12:37:34.844Z,51.23
2024-01-09T12:40:02.153Z,51.04
2024-01-09T12:42:29.562Z,51.21
2024-01-09T12:44:56.838Z,50.61
2024-01-09T12:47:24.491Z,51.31
2024-01-09T12:50:02.331Z,50.38
2024-01-09T12:52:36.610Z,50.94
2024-01-09T12:55:05.180Z,51.02
2024-01-09T12:57:33.208Z,50.80
2024-01-09T13:00:00.283Z,50.94
2024-01-09T13:02:27.496Z,50.91
2024-01-09T13:04:54.995Z,50.49
2024-01-09T13:07:21.824Z,50.63
2024-01-09T13:09:49.747Z,50.77
2024-01-09T13:12:16.400Z,51.29
2024-01-09T13:14:43.277Z,50.63
2024-01-09T13:17:09.797Z,50.35
2024-01-09T13:19:36.765Z,50.08
2024-01-09T13:24:35.465Z,50.23
2024-01-09T13:27:05.233Z,50.01
2024-01-09T13:32:01.908Z,49.87
2024-01-09T13:34:29.021Z,50.03
2024-01-09T13:36:56.794Z,49.89
2024-01-09T13:39:24.474Z,49.45
2024-01-09T13:41:51.667Z,48.51
2024-01-09T13:44:18.574Z,49.24
2024-01-09T13:46:46.141Z,49.52
2024-01-09T13:49:13.651Z,49.24
2024-01-09T13:51:53.384Z,48.96
2024-01-09T13:54:57.863Z,48.99
2024-01-09T13:57:24.774Z,49.73
2024-01-09T13:59:51.464Z,49.42
2024-01-09T14:02:18.173Z,49.14
2024-01-09T14:04:45.216Z,49.21
2024-01-09T14:07:12.039Z,49.40
2024-01-09T14:09:38.971Z,48.68
2024-01-09T14:12:14.984Z,49.13
2024-01-09T14:14:41.479Z,49.08
2024-01-09T14:17:07.984Z,49.47
2024-01-09T14:19:35.152Z,49.34
2024-01-09T14:22:08.695Z,49.57
2024-01-09T14:30:07.827Z,49.93
2024-01-09T14:32:35.953Z,49.44
2024-01-09T14:35:02.608Z,50.01
2024-01-09T14:37:29.124Z,49.71
2024-01-09T14:39:55.619Z,50.52
2024-01-09T14:42:22.634Z,50.07
2024-01-09T14:44:55.577Z,50.41
2024-01-09T14:47:23.757Z,50.11
2024-01-09T14:49:50.264Z,50.72
2024-01-09T14:52:16.780Z,50.49
2024-01-09T14:54:43.504Z,50.70
2024-01-09T14:57:09.956Z,50.43
2024-01-09T14:59:36.335Z,50.35
2024-01-09T15:02:03.538Z,50.52
2024-01-09T15:04:30.186Z,50.23
2024-01-09T15:07:00.352Z,50.32
2024-01-09T15:09:31.506Z,50.51
2024-01-09T15:11:57.964Z,50.07
2024-01-09T15:14:24.551Z,50.70
2024-01-09T15:16:51.084Z,50.96
2024-01-09T15:19:17.610Z,51.35
2024-01-09T15:21:44.255Z,50.55
2024-01-09T15:24:10.810Z,50.71
2024-01-09T15:26:43.862Z,50.96
2024-01-09T15:29:10.595Z,51.24
2024-01-09T15:31:40.776Z,51.22
2024-01-09T15:34:08.065Z,51.42
2024-01-09T15:36:34.774Z,52.54
2024-01-09T15:39:01.333Z,51.65
2024-01-09T15:41:28.153Z,52.21
2024-01-09T15:43:55.084Z,51.91
2024-01-09T15:46:28.812Z,51.78
2024-01-09T15:48:55.478Z,51.64
2024-01-09T15:51:22.264Z,52.47
2024-01-09T15:53:50.199Z,52.79
2024-01-09T15:56:23.915Z,53.11
2024-01-09T15:58:50.988Z,52.58
2024-01-09T16:01:21.756Z,52.47
2024-01-09T16:03:49.173Z,52.95
2024-01-09T16:06:16.474Z,53.80
2024-01-09T16:08:44.062Z,53.01
2024-01-09T16:11:11.009Z,53.31
2024-01-09T16:13:41.295Z,53.03
2024-01-09T16:16:17.296Z,53.62
2024-01-09T16:18:44.274Z,53.19
2024-01-09T16:21:10.757Z,54.01
2024-01-09T16:23:41.619Z,53.54
2024-01-09T16:26:08.692Z,53.35
2024-01-09T16:28:36.072Z,53.37
2024-01-09T16:31:02.673Z,53.82
2024-01-09T16:33:30.293Z,53.15
2024-01-09T16:35:57.002Z,53.91
2024-01-09T16:38:23.477Z,53.42
2024-01-09T16:40:50.125Z,54.06
2024-01-09T16:43:17.480Z,54.30
2024-01-09T16:45:46.684Z,53.82
2024-01-09T16:48:16.552Z,53.99
2024-01-09T16:50:46.510Z,53.45
2024-01-09T16:53:13.004Z,53.84
2024-01-09T16:55:45.869Z,53.74
2024-01-09T16:58:12.486Z,54.31
2024-01-09T17:00:40.473Z,53.83
2024-01-09T17:03:07.298Z,54.73
2024-01-09T17:05:33.821Z,53.89
2024-01-09T17:08:00.400Z,53.80
2024-01-09T17:10:28.043Z,54.34
2024-01-09T17:12:54.593Z,54.06
2024-01-09T17:15:26.540Z,54.35
2024-01-09T17:17:53.783Z,54.33
2024-01-09T17:20:20.807Z,54.51
2024-01-09T17:22:47.348Z,53.81
2024-01-09T17:25:14.839Z,54.18
2024-01-09T17:27:42.643Z,53.88
2024-01-09T17:30:11.836Z,54.10
2024-01-09T17:32:39.024Z,54.62
2024-01-09T17:35:05.565Z,53.72
2024-01-09T17:37:32.151Z,54.24
2024-01-09T17:39:58.799Z,54.02
2024-01-09T17:42:27.908Z,53.69
2024-01-09T17:44:54.373Z,53.63
2024-01-09T17:47:21.081Z,53.91
2024-01-09T17:49:47.666Z,53.73
2024-01-09T17:52:14.070Z,54.25
2024-01-09T17:54:42.669Z,53.51
2024-01-09T17:57:10.410Z,53.96
2024-01-09T17:59:36.832Z,54.00
2024-01-09T18:02:03.591Z,53.60
2024-01-09T18:04:30.450Z,54.12
2024-01-09T18:06:57.134Z,53.17
2024-01-09T18:09:25.206Z,53.77
2024-01-09T18:11:52.892Z,54.18
2024-01-09T18:14:19.601Z,53.72
2024-01-09T18:16:47.514Z,53.47
2024-01-09T18:19:15.029Z,52.97
2024-01-09T18:21:42.670Z,53.05
2024-01-09T18:24:12.581Z,53.59
2024-01-09T18:26:52.483Z,53.52
2024-01-09T18:29:22.141Z,53.11
2024-01-09T18:31:49.844Z,53.59
2024-01-09T18:34:21.911Z,53.82
2024-01-09T18:36:52.577Z,53.38
2024-01-09T18:39:20.330Z,53.53
2024-01-09T18:41:57.464Z,53.55
2024-01-09T18:44:25.682Z,53.39
2024-01-09T18:46:52.554Z,53.68
2024-01-09T18:49:20.078Z,53.69
2024-01-09T18:51:46.637Z,53.80
2024-01-09T18:54:15.284Z,53.44
2024-01-09T18:56:43.687Z,54.13
2024-01-09T18:59:11.765Z,53.47
2024-01-09T19:01:41.945Z,53.93
2024-01-09T19:04:08.661Z,53.34
2024-01-09T19:06:35.519Z,53.60
2024-01-09T19:09:08.441Z,53.86
2024-01-09T19:11:35.083Z,53.37
2024-01-09T19:14:02.242Z,53.75
2024-01-09T19:16:29.273Z,54.48
2024-01-09T19:18:56.162Z,54.17
2024-01-09T19:21:22.674Z,54.04
2024-01-09T19:23:49.079Z,53.59
2024-01-09T19:26:15.723Z,54.40
2024-01-09T19:28:42.446Z,53.96
2024-01-09T19:31:09.414Z,54.35
2024-01-09T19:33:40.488Z,53.85
2024-01-09T19:36:14.601Z,54.17
2024-01-09T19:38:41.848Z,53.99
2024-01-09T19:41:16.418Z,54.35
2024-01-09T19:43:44.827Z,54.19
2024-01-09T19:46:11.449Z,54.25
2024-01-09T19:48:38.059Z,53.67
2024-01-09T19:51:09.174Z,54.01
2024-01-09T19:53:35.766Z,54.88
2024-01-09T19:56:02.847Z,54.42
2024-01-09T19:58:29.390Z,54.41
2024-01-09T20:00:56.110Z,54.59
2024-01-09T20:03:22.607Z,53.95
2024-01-09T20:05:49.242Z,53.83
2024-01-09T20:08:16.074Z,54.43
2024-01-09T20:10:42.761Z,54.42
2024-01-09T20:13:10.012Z,53.93
2024-01-09T20:15:38.356Z,54.18
2024-01-09T20:18:11.173Z,53.87
2024-01-09T20:20:37.766Z,53.99
2024-01-09T20:23:05.275Z,53.66
2024-01-09T20:25:31.992Z,53.55
2024-01-09T20:27:58.616Z,53.80
2024-01-09T20:30:26.249Z,53.40
2024-01-09T20:32:52.994Z,53.70
2024-01-09T20:35:20.389Z,53.73
2024-01-09T20:37:47.352Z,53.61
2024-01-09T20:40:14.814Z,53.70
2024-01-09T20:42:41.240Z,54.55
2024-01-09T20:45:08.208Z,54.37
2024-01-09T20:47:35.911Z,53.66
2024-01-09T20:50:02.924Z,54.31
2024-01-09T20:52:29.633Z,53.85
2024-01-09T20:54:57.003Z,54.09
2024-01-09T20:57:23.715Z,53.79
2024-01-09T20:59:50.140Z,54.05
2024-01-09T21:02:16.960Z,53.95
2024-01-09T21:04:45.173Z,54.42
2024-01-09T21:07:16.765Z,54.47
2024-01-09T21:09:43.337Z,54.39
2024-01-09T21:12:10.971Z,54.50
2024-01-09T21:14:37.442Z,54.38
2024-01-09T21:17:04.417Z,55.10
2024-01-09T21:19:31.185Z,54.85
2024-01-09T21:21:57.889Z,54.37
2024-01-09T21:24:24.392Z,55.04
2024-01-09T21:26:50.853Z,54.79
2024-01-09T21:29:17.343Z,54.78
2024-01-09T21:31:44.030Z,55.00
2024-01-09T21:34:10.612Z,55.46
2024-01-09T21:36:40.922Z,55.78
2024-01-09T21:39:10.052Z,55.45
2024-01-09T21:41:36.753Z,55.12
2024-01-09T21:44:03.516Z,55.80
2024-01-09T21:46:30.197Z,55.53
2024-01-09T21:48:59.451Z,56.02
2024-01-09T21:54:14.317Z,55.29
2024-01-09T21:56:40.864Z,56.04
2024-01-09T21:59:07.538Z,55.33
2024-01-09T22:01:34.383Z,55.87
2024-01-09T22:04:01.254Z,56.33
2024-01-09T22:06:29.383Z,56.42
2024-01-09T22:08:55.923Z,56.17
2024-01-09T22:11:22.348Z,56.90
2024-01-09T22:13:49.042Z,56.28
2024-01-09T22:16:20.574Z,56.44
2024-01-09T22:18:47.241Z,57.07
2024-01-09T22:21:13.734Z,57.05
2024-01-09T22:23:40.180Z,57.18
2024-01-09T22:26:06.867Z,57.57
2024-01-09T22:28:33.382Z,57.56
2024-01-09T22:30:59.857Z,57.39
2024-01-09T22:33:26.387Z,57.64
2024-01-09T22:35:52.857Z,57.62
2024-01-09T22:38:19.986Z,58.35
2024-01-09T22:40:47.131Z,57.98
2024-01-09T22:43:13.742Z,58.79
2024-01-09T22:45:40.345Z,58.58
2024-01-09T22:48:07.359Z,58.12
2024-01-09T22:50:35.854Z,58.17
2024-01-09T22:53:03.611Z,58.12
2024-01-09T22:55:30.079Z,58.11
2024-01-09T22:57:56.569Z,59.06
2024-01-09T23:00:23.636Z,58.73
2024-01-09T23:02:52.082Z,59.25
2024-01-09T23:05:19.961Z,59.12
2024-01-09T23:07:47.642Z,59.01
2024-01-09T23:10:14.202Z,59.36
2024-01-09T23:12:41.030Z,59.72
2024-01-09T23:15:09.031Z,60.13
2024-01-09T23:17:36.928Z,60.03
2024-01-09T23:20:05.788Z,60.02
2024-01-09T23:22:32.651Z,59.98
2024-01-09T23:24:59.143Z,60.88
2024-01-09T23:27:25.530Z,60.60
2024-01-09T23:29:52.773Z,61.10
2024-01-09T23:32:19.345Z,60.85
2024-01-09T23:34:53.461Z,61.47
2024-01-09T23:37:27.720Z,60.74
2024-01-09T23:39:54.389Z,61.54
2024-01-09T23:42:20.804Z,61.27
2024-01-09T23:44:47.452Z,61.90
2024-01-09T23:47:13.961Z,62.17
2024-01-09T23:49:40.496Z,62.45
2024-01-09T23:52:08.348Z,62.08
2024-01-09T23:54:34.964Z,62.55
2024-01-09T23:57:01.381Z,62.50
2024-01-09T23:59:27.942Z,62.98
